Terminal Aerodrome Forecast
Issued by NWS Cleveland, OH

Home | Current Version | Previous Version | Text Only | Print | Product List | Glossary On
Versions: 1 2 3 4 5 6 7 8 9 10 11 12 13 14 15 16 17
023
FTUS41 KCLE 191137
TAFMFD
TAF
KMFD 191137Z 1912/2012 18011KT 6SM -SHRA VCTS SCT015 OVC040CB
      WS020/22040KT
      TEMPO 1912/1914 4SM -SHRA BR BKN015
     FM191400 19014KT 3SM SHRA BR BKN006 OVC012 WS020/22045KT
     FM192100 21015G25KT P6SM VCSH BKN020 OVC050=

USA.gov is the U.S. government's official web portal to all federal, state and local government web resources and services.